createdAt,value
2023-07-18T00:02:36.686Z,2.577181208053691
2023-07-18T00:05:56.619Z,2.161073825503356
2023-07-18T00:09:17.145Z,4.2885906040268456
2023-07-18T00:12:37.014Z,3.610738255033557
2023-07-18T00:16:32.550Z,2.651006711409396
2023-07-18T00:19:52.619Z,3.2013422818791946
2023-07-18T00:23:13.770Z,3.2885906040268456
2023-07-18T00:26:35.153Z,3.2885906040268456
2023-07-18T00:32:29.867Z,3.2416107382550337
2023-07-18T00:35:51.182Z,2.959731543624161
2023-07-18T00:39:11.265Z,2.4832214765100673
2023-07-18T00:42:31.798Z,3.6711409395973154
2023-07-18T00:47:14.477Z,2.6442953020134228
2023-07-18T00:50:33.870Z,1.7651006711409396
2023-07-18T00:53:53.642Z,2.2348993288590604
2023-07-18T00:57:13.246Z,2.8187919463087248
2023-07-18T01:05:34.569Z,3.1812080536912752
2023-07-18T01:08:54.057Z,3.476510067114094
2023-07-18T01:12:14.257Z,4.429530201342282
2023-07-18T01:15:34.361Z,6.214765100671141
2023-07-18T01:19:43.381Z,3.6711409395973154
2023-07-18T01:23:02.940Z,1.516778523489933
2023-07-18T01:26:23.551Z,1.5503355704697988
2023-07-18T01:29:43.877Z,3.946308724832215
2023-07-18T01:33:04.660Z,3.3288590604026846
2023-07-18T01:36:24.862Z,2.7449664429530203
2023-07-18T01:39:48.893Z,3.1946308724832213
2023-07-18T01:43:20.116Z,4.865771812080537
2023-07-18T01:46:40.188Z,4.476510067114094
2023-07-18T01:49:59.693Z,3.0
2023-07-18T01:53:19.934Z,4.040268456375839
2023-07-18T01:58:04.051Z,3.053691275167785
2023-07-18T02:01:24.432Z,5.100671140939597
2023-07-18T02:04:44.339Z,4.25503355704698
2023-07-18T02:08:03.738Z,2.4832214765100673
2023-07-18T02:11:25.046Z,4.577181208053691
2023-07-18T02:14:44.545Z,2.1073825503355703
2023-07-18T02:18:03.966Z,5.100671140939597
2023-07-18T02:24:27.711Z,3.8523489932885906
2023-07-18T02:27:47.542Z,2.4832214765100673
2023-07-18T02:31:08.227Z,4.4630872483221475
2023-07-18T02:35:30.618Z,3.791946308724832
2023-07-18T02:38:50.399Z,3.0671140939597317
2023-07-18T02:42:11.379Z,5.422818791946309
2023-07-18T02:45:31.815Z,2.4496644295302015
2023-07-18T02:48:52.127Z,4.053691275167785
2023-07-18T02:52:13.380Z,2.174496644295302
2023-07-18T02:55:33.100Z,4.785234899328859
2023-07-18T02:58:53.164Z,5.026845637583893
2023-07-18T03:02:13.376Z,3.261744966442953
2023-07-18T03:05:33.263Z,3.879194630872483
2023-07-18T03:08:53.462Z,4.718120805369128
2023-07-18T03:12:13.655Z,3.174496644295302
2023-07-18T03:15:33.359Z,4.1610738255033555
2023-07-18T03:18:55.988Z,4.7114093959731544
2023-07-18T03:22:15.870Z,5.604026845637584
2023-07-18T03:25:35.661Z,4.657718120805369
2023-07-18T03:28:55.668Z,4.74496644295302
2023-07-18T03:32:15.786Z,4.416107382550336
2023-07-18T03:35:36.470Z,5.993288590604027
2023-07-18T03:38:56.710Z,2.9395973154362416
2023-07-18T03:43:39.382Z,3.8187919463087248
2023-07-18T03:47:54.740Z,5.02013422818792
2023-07-18T03:51:15.248Z,4.630872483221476
2023-07-18T03:54:35.930Z,4.073825503355705
2023-07-18T03:57:56.837Z,3.9060402684563758
2023-07-18T04:01:17.417Z,4.865771812080537
2023-07-18T04:04:36.714Z,5.1879194630872485
2023-07-18T04:07:57.102Z,4.046979865771812
2023-07-18T04:11:17.502Z,2.302013422818792
2023-07-18T04:14:37.394Z,5.375838926174497
2023-07-18T04:17:57.339Z,2.0604026845637584
2023-07-18T04:21:17.486Z,2.5503355704697985
2023-07-18T04:24:37.407Z,4.409395973154362
2023-07-18T04:28:24.268Z,3.5436241610738257
2023-07-18T04:31:44.282Z,5.140939597315437
2023-07-18T04:35:04.636Z,3.087248322147651
2023-07-18T04:38:25.034Z,2.8120805369127515
2023-07-18T04:41:54.686Z,2.9731543624161074
2023-07-18T04:45:26.436Z,3.8926174496644297
2023-07-18T04:48:46.516Z,4.295302013422819
2023-07-18T04:52:13.188Z,3.469798657718121
2023-07-18T04:55:53.912Z,3.5369127516778525
2023-07-18T04:59:14.673Z,5.3624161073825505
2023-07-18T05:02:34.489Z,3.3221476510067114
2023-07-18T05:08:11.341Z,2.1073825503355703
2023-07-18T05:12:12.204Z,3.134228187919463
2023-07-18T05:15:40.668Z,3.523489932885906
2023-07-18T05:18:59.891Z,2.3087248322147653
2023-07-18T05:22:20.541Z,3.7651006711409396
2023-07-18T05:25:41.615Z,0.87248322147651
2023-07-18T05:29:01.597Z,3.476510067114094
2023-07-18T05:32:22.100Z,3.1812080536912752
2023-07-18T05:35:42.408Z,3.4630872483221475
2023-07-18T05:39:02.066Z,2.651006711409396
2023-07-18T05:42:22.387Z,5.6644295302013425
2023-07-18T05:48:35.635Z,3.053691275167785
2023-07-18T05:52:01.337Z,4.040268456375839
2023-07-18T05:55:22.089Z,2.959731543624161
2023-07-18T05:58:41.709Z,2.879194630872483
2023-07-18T06:02:01.500Z,3.2416107382550337
2023-07-18T06:06:16.049Z,2.704697986577181
2023-07-18T06:09:35.941Z,2.704697986577181
2023-07-18T06:12:56.556Z,4.3624161073825505
2023-07-18T06:16:17.054Z,2.959731543624161
2023-07-18T06:20:18.173Z,2.7449664429530203
2023-07-18T06:23:38.524Z,4.033557046979865
2023-07-18T06:28:41.449Z,3.3959731543624163
2023-07-18T06:37:48.316Z,3.557046979865772
2023-07-18T06:41:08.810Z,1.7248322147651007
2023-07-18T06:44:29.442Z,2.120805369127517
2023-07-18T06:47:49.862Z,3.161073825503356
2023-07-18T06:51:09.500Z,2.9194630872483223
2023-07-18T06:54:30.173Z,4.966442953020135
2023-07-18T06:57:49.905Z,3.9865771812080535
2023-07-18T07:01:09.798Z,4.87248322147651
2023-07-18T07:11:03.913Z,3.8926174496644297
2023-07-18T07:15:41.070Z,2.597315436241611
2023-07-18T07:19:11.344Z,3.8322147651006713
2023-07-18T07:22:31.648Z,3.7181208053691277
2023-07-18T07:28:24.061Z,3.1879194630872485
2023-07-18T07:31:44.438Z,2.295302013422819
2023-07-18T07:35:06.075Z,3.1946308724832213
2023-07-18T07:38:26.384Z,2.51006711409396
2023-07-18T07:41:46.132Z,2.651006711409396
2023-07-18T07:45:05.373Z,1.6845637583892616
2023-07-18T07:48:26.262Z,3.966442953020134
2023-07-18T07:53:48.407Z,2.61744966442953
2023-07-18T07:57:08.650Z,2.7449664429530203
2023-07-18T08:00:27.947Z,4.382550335570469
2023-07-18T08:03:47.785Z,2.6577181208053693
2023-07-18T08:07:10.270Z,4.355704697986577
2023-07-18T08:10:32.284Z,2.0805369127516777
2023-07-18T08:13:51.665Z,1.9261744966442953
2023-07-18T08:18:26.620Z,3.0604026845637584
2023-07-18T08:21:46.513Z,1.9261744966442953
2023-07-18T08:25:06.661Z,2.261744966442953
2023-07-18T08:28:26.873Z,1.0536912751677852
2023-07-18T08:36:38.201Z,2.9798657718120807
2023-07-18T08:39:57.760Z,1.476510067114094
2023-07-18T08:43:17.843Z,1.8993288590604027
2023-07-18T08:46:37.069Z,2.7583892617449663
2023-07-18T08:49:57.420Z,1.8724832214765101
2023-07-18T08:53:18.635Z,1.0738255033557047
2023-07-18T08:59:15.462Z,1.9463087248322148
2023-07-18T09:04:40.225Z,1.3691275167785235
2023-07-18T09:08:00.201Z,1.5369127516778522
2023-07-18T09:11:21.972Z,1.6845637583892616
2023-07-18T09:15:58.916Z,2.2684563758389262
2023-07-18T09:19:19.237Z,1.8456375838926173
2023-07-18T09:22:39.624Z,1.6644295302013423
2023-07-18T09:25:59.374Z,1.3154362416107384
2023-07-18T09:29:19.677Z,1.9865771812080537
2023-07-18T09:32:39.474Z,2.228187919463087
2023-07-18T09:36:00.363Z,2.2416107382550337
2023-07-18T09:39:20.074Z,1.610738255033557
2023-07-18T09:42:45.294Z,2.7986577181208054
2023-07-18T09:46:06.383Z,0.8389261744966443
2023-07-18T09:52:51.674Z,1.1946308724832215
2023-07-18T09:57:24.374Z,1.3825503355704698
2023-07-18T10:02:14.545Z,1.1812080536912752
2023-07-18T10:05:35.050Z,1.308724832214765
2023-07-18T10:08:55.136Z,1.7852348993288591
2023-07-18T10:12:47.699Z,0.9798657718120806
2023-07-18T10:18:08.507Z,2.2550335570469797
2023-07-18T10:21:28.930Z,1.3020134228187918
2023-07-18T10:24:48.879Z,1.738255033557047
2023-07-18T10:28:08.380Z,1.738255033557047
2023-07-18T10:31:27.903Z,0.7114093959731543
2023-07-18T10:34:48.239Z,2.1073825503355703
2023-07-18T10:38:09.140Z,3.3557046979865772
2023-07-18T10:41:29.267Z,2.389261744966443
2023-07-18T10:44:48.900Z,1.6979865771812082
2023-07-18T10:48:09.142Z,0.6040268456375839
2023-07-18T10:51:29.394Z,1.3355704697986577
2023-07-18T10:54:49.277Z,1.1409395973154361
2023-07-18T10:58:09.058Z,0.8053691275167785
2023-07-18T11:04:36.767Z,1.0469798657718121
2023-07-18T11:07:56.119Z,1.261744966442953
2023-07-18T11:11:16.409Z,1.2885906040268456
2023-07-18T11:14:36.194Z,1.738255033557047
2023-07-18T11:17:56.272Z,1.1543624161073827
2023-07-18T11:21:15.853Z,2.0067114093959733
2023-07-18T11:24:35.744Z,1.9597315436241611
2023-07-18T11:27:55.643Z,0.42953020134228187
2023-07-18T11:31:26.584Z,2.302013422818792
2023-07-18T11:39:06.154Z,0.610738255033557
2023-07-18T11:42:25.822Z,1.3557046979865772
2023-07-18T11:45:45.316Z,0.7651006711409396
2023-07-18T11:49:05.478Z,1.9597315436241611
2023-07-18T11:52:26.004Z,2.610738255033557
2023-07-18T11:55:45.452Z,2.3758389261744965
2023-07-18T11:59:06.172Z,1.3624161073825503
2023-07-18T12:07:17.183Z,1.3557046979865772
2023-07-18T12:10:37.694Z,0.697986577181208
2023-07-18T12:17:09.795Z,1.1812080536912752
2023-07-18T12:20:29.988Z,2.2818791946308723
2023-07-18T12:23:49.531Z,1.1409395973154361
2023-07-18T12:27:09.102Z,3.5838926174496644
2023-07-18T12:30:28.989Z,3.0268456375838926
2023-07-18T12:33:48.466Z,3.2550335570469797
2023-07-18T12:37:08.870Z,2.5906040268456376
2023-07-18T12:40:28.874Z,1.516778523489933
2023-07-18T12:43:48.408Z,2.422818791946309
2023-07-18T12:47:08.096Z,2.5033557046979866
2023-07-18T12:50:29.005Z,1.2751677852348993
2023-07-18T12:53:49.203Z,1.912751677852349
2023-07-18T12:57:09.049Z,3.8993288590604025
2023-07-18T13:00:29.365Z,3.1006711409395975
2023-07-18T13:03:49.460Z,2.040268456375839
2023-07-18T13:07:09.669Z,1.3691275167785235
2023-07-18T13:10:29.544Z,2.6241610738255035
2023-07-18T13:13:49.339Z,1.570469798657718
2023-07-18T13:19:37.393Z,0.8053691275167785
2023-07-18T13:22:56.555Z,1.0335570469798658
2023-07-18T13:26:17.315Z,0.9530201342281879
2023-07-18T13:29:37.148Z,1.3557046979865772
2023-07-18T13:33:26.914Z,3.1946308724832213
2023-07-18T13:36:46.604Z,1.6375838926174497
2023-07-18T13:40:06.513Z,1.4496644295302012
2023-07-18T13:45:00.890Z,1.2684563758389262
2023-07-18T13:48:22.161Z,1.476510067114094
2023-07-18T13:51:41.688Z,1.5570469798657718
2023-07-18T13:55:01.161Z,1.0201342281879195
2023-07-18T13:58:21.249Z,1.1208053691275168
2023-07-18T14:01:40.962Z,1.6308724832214765
2023-07-18T14:05:00.915Z,1.7114093959731544
2023-07-18T14:10:47.017Z,1.9261744966442953
2023-07-18T14:14:07.006Z,1.4026845637583893
2023-07-18T14:20:03.560Z,1.308724832214765
2023-07-18T14:23:22.981Z,0.9932885906040269
2023-07-18T14:26:42.853Z,1.7114093959731544
2023-07-18T14:30:02.694Z,1.6778523489932886
2023-07-18T14:33:23.105Z,1.1543624161073827
2023-07-18T14:39:29.302Z,2.315436241610738
2023-07-18T14:42:48.472Z,1.1946308724832215
2023-07-18T14:46:09.182Z,1.8791946308724832
2023-07-18T14:49:29.852Z,1.1812080536912752
2023-07-18T14:52:49.338Z,1.3020134228187918
2023-07-18T14:56:09.301Z,2.0805369127516777
2023-07-18T14:59:29.521Z,1.8523489932885906
2023-07-18T15:02:49.865Z,2.0134228187919465
2023-07-18T15:06:09.571Z,1.1006711409395973
2023-07-18T15:09:29.464Z,1.3691275167785235
2023-07-18T15:12:49.964Z,1.8791946308724832
2023-07-18T15:16:10.080Z,1.342281879194631
2023-07-18T15:19:30.651Z,2.208053691275168
2023-07-18T15:26:48.816Z,0.6711409395973155
2023-07-18T15:30:08.496Z,0.9261744966442953
2023-07-18T15:33:29.217Z,0.9261744966442953
2023-07-18T15:36:49.501Z,1.3691275167785235
2023-07-18T15:40:09.993Z,0.8187919463087249
2023-07-18T15:45:17.514Z,1.5771812080536913
2023-07-18T15:48:37.287Z,0.8993288590604027
2023-07-18T15:51:57.638Z,1.1946308724832215
2023-07-18T15:55:19.427Z,0.912751677852349
2023-07-18T16:03:32.113Z,1.1140939597315436
2023-07-18T16:06:52.121Z,1.1946308724832215
2023-07-18T16:10:13.315Z,0.697986577181208
2023-07-18T16:13:33.550Z,1.563758389261745
2023-07-18T16:16:53.737Z,1.7718120805369129
2023-07-18T16:20:14.749Z,2.261744966442953
2023-07-18T16:27:14.200Z,2.3624161073825505
2023-07-18T16:31:30.954Z,0.9664429530201343
2023-07-18T16:34:51.182Z,0.6845637583892618
2023-07-18T16:38:13.442Z,1.74496644295302
2023-07-18T16:41:33.328Z,1.523489932885906
2023-07-18T16:56:51.208Z,0.8590604026845637
2023-07-18T17:00:11.141Z,1.2483221476510067
2023-07-18T17:03:31.706Z,0.6845637583892618
2023-07-18T17:07:00.119Z,0.42953020134228187
2023-07-18T17:10:20.301Z,1.1946308724832215
2023-07-18T17:13:41.202Z,1.8389261744966443
2023-07-18T17:17:16.747Z,1.25503355704698
2023-07-18T17:20:36.538Z,0.8322147651006712
2023-07-18T17:25:49.870Z,1.1275167785234899
2023-07-18T17:29:09.693Z,1.2080536912751678
2023-07-18T17:32:45.771Z,0.42953020134228187
2023-07-18T17:45:15.459Z,0.4966442953020134
2023-07-18T17:48:34.771Z,0.8456375838926175
2023-07-18T17:51:55.155Z,0.87248322147651
2023-07-18T17:55:15.147Z,0.33557046979865773
2023-07-18T18:04:29.632Z,1.087248322147651
2023-07-18T18:08:23.614Z,0.3087248322147651
2023-07-18T18:12:01.836Z,0.174496644295302
2023-07-18T18:34:37.659Z,1.3691275167785235
2023-07-18T18:37:57.787Z,0.5100671140939598
2023-07-18T18:41:19.516Z,0.5100671140939598
2023-07-18T18:53:33.532Z,0.174496644295302
2023-07-18T18:56:53.873Z,0.5100671140939598
2023-07-18T19:00:14.626Z,0.5234899328859061
2023-07-18T19:03:35.995Z,0.6711409395973155
2023-07-18T19:08:18.779Z,0.4429530201342282
2023-07-18T19:12:17.885Z,0.6442953020134228
2023-07-18T19:15:37.977Z,0.7248322147651006
2023-07-18T19:18:57.873Z,0.5234899328859061
2023-07-18T19:22:20.368Z,0.33557046979865773
2023-07-18T19:28:22.901Z,0.24161073825503357
2023-07-18T19:31:52.645Z,0.4697986577181208
2023-07-18T19:36:37.566Z,0.4563758389261745
2023-07-18T19:45:45.129Z,0.348993288590604
2023-07-18T19:49:05.411Z,0.3221476510067114
2023-07-18T19:52:25.405Z,0.9463087248322147
2023-07-18T19:57:07.917Z,0.48322147651006714
2023-07-18T20:00:56.782Z,0.8456375838926175
2023-07-18T20:04:17.931Z,0.5100671140939598
2023-07-18T20:08:18.219Z,0.7718120805369127
2023-07-18T20:11:38.416Z,0.5637583892617449
2023-07-18T20:14:58.713Z,0.9530201342281879
2023-07-18T20:18:20.126Z,1.0268456375838926
2023-07-18T20:21:41.441Z,0.4966442953020134
2023-07-18T20:25:07.686Z,1.1006711409395973
2023-07-18T20:33:10.140Z,0.6577181208053692
2023-07-18T20:36:30.788Z,0.8859060402684564
2023-07-18T20:39:51.092Z,0.8456375838926175
2023-07-18T20:43:31.030Z,1.0335570469798658
2023-07-18T20:46:50.308Z,0.9865771812080537
2023-07-18T20:53:16.363Z,0.87248322147651
2023-07-18T20:56:36.129Z,0.0
2023-07-18T20:59:56.529Z,0.1610738255033557
2023-07-18T21:03:17.397Z,1.0335570469798658
2023-07-18T21:07:09.085Z,1.0268456375838926
2023-07-18T21:10:29.477Z,1.2751677852348993
2023-07-18T21:16:16.189Z,0.8859060402684564
2023-07-18T21:26:08.775Z,2.040268456375839
2023-07-18T21:30:28.072Z,1.570469798657718
2023-07-18T21:33:48.344Z,1.1275167785234899
2023-07-18T21:37:08.764Z,0.348993288590604
2023-07-18T21:40:29.343Z,2.0067114093959733
2023-07-18T21:43:49.975Z,0.5637583892617449
2023-07-18T21:47:10.238Z,1.0469798657718121
2023-07-18T21:52:38.399Z,1.0335570469798658
2023-07-18T21:55:59.326Z,1.1812080536912752
2023-07-18T21:59:20.929Z,1.6174496644295302
2023-07-18T22:02:40.494Z,0.33557046979865773
2023-07-18T22:06:00.544Z,1.1006711409395973
2023-07-18T22:09:20.799Z,1.2885906040268456
2023-07-18T22:12:41.641Z,0.7516778523489933
